Time;durP1;ratioP1;P1;durP2;ratioP2;P2;SDS_P1;SDS_P2;PMS_P1;PMS_P2;Temp;Humidity;BMP_temperature;BMP_pressure;BME280_temperature;BME280_humidity;BME280_pressure;Samples;Min_cycle;Max_cycle;Signal;HPM_P1;HPM_P2
2023/10/21 00:00:38;;;;;;;4.43;0.82;;;;;;;14.42;100.00;96679.47;5091603;28;20493;-47
2023/10/21 00:03:04;;;;;;;1.95;0.40;;;;;;;14.44;100.00;96674.69;5093126;28;20024;-47
2023/10/21 00:05:30;;;;;;;0.30;0.30;;;;;;;14.42;100.00;96671.53;5091512;28;20401;-47
2023/10/21 00:07:56;;;;;;;1.27;0.68;;;;;;;14.42;100.00;96676.03;5092468;28;20040;-47
2023/10/21 00:10:21;;;;;;;1.70;0.50;;;;;;;14.48;100.00;96683.66;5091427;28;20463;-48
2023/10/21 00:12:47;;;;;;;2.20;0.35;;;;;;;14.46;100.00;96693.69;5092756;28;20106;-47
2023/10/21 00:15:13;;;;;;;2.65;0.35;;;;;;;14.45;100.00;96702.69;5092662;28;20375;-47
2023/10/21 00:17:38;;;;;;;0.63;0.38;;;;;;;14.43;100.00;96710.09;5091328;28;20020;-47
2023/10/21 00:20:08;;;;;;;2.08;1.25;;;;;;;14.44;100.00;96698.44;5092880;28;20062;-47
2023/10/21 00:22:35;;;;;;;1.95;1.75;;;;;;;14.51;100.00;96704.22;5092460;28;20525;-48
2023/10/21 00:25:02;;;;;;;0.38;0.22;;;;;;;14.55;100.00;96707.09;5092466;28;20111;-47
2023/10/21 00:27:28;;;;;;;0.85;0.45;;;;;;;14.53;100.00;96717.16;5091104;28;20055;-47
2023/10/21 00:29:53;;;;;;;2.15;0.52;;;;;;;14.48;100.00;96717.19;5092433;28;20112;-47
2023/10/21 00:32:19;;;;;;;1.55;0.60;;;;;;;14.47;100.00;96718.25;5091372;28;20028;-48
2023/10/21 00:34:44;;;;;;;1.02;0.47;;;;;;;14.52;100.00;96734.81;5092315;28;20051;-47
2023/10/21 00:37:10;;;;;;;4.93;1.02;;;;;;;14.54;100.00;96735.34;5090927;28;20028;-47
2023/10/21 00:39:37;;;;;;;2.75;0.65;;;;;;;14.55;100.00;96729.00;5092280;28;20269;-47
2023/10/21 00:42:04;;;;;;;1.75;0.40;;;;;;;14.54;100.00;96739.84;5092164;28;20652;-47
2023/10/21 00:44:30;;;;;;;0.73;0.30;;;;;;;14.54;100.00;96740.63;5092218;28;20024;-47
2023/10/21 00:46:59;;;;;;;1.23;0.32;;;;;;;14.59;100.00;96745.13;5090726;28;20107;-47
2023/10/21 00:49:25;;;;;;;0.90;0.30;;;;;;;14.64;100.00;96745.06;5091154;28;20016;-47
2023/10/21 00:51:52;;;;;;;6.00;0.88;;;;;;;14.63;100.00;96745.34;5092129;28;20493;-47
2023/10/21 00:54:18;;;;;;;3.38;0.52;;;;;;;14.70;100.00;96757.19;5092092;28;20020;-47
2023/10/21 00:56:44;;;;;;;1.20;0.17;;;;;;;14.69;100.00;96758.25;5092048;28;20024;-47
2023/10/21 00:59:14;;;;;;;0.40;0.30;;;;;;;14.72;100.00;96762.19;5090698;28;20020;-47
2023/10/21 01:01:40;;;;;;;2.00;1.30;;;;;;;14.73;100.00;96777.00;5090973;28;20028;-47
2023/10/21 01:04:06;;;;;;;3.47;0.50;;;;;;;14.74;100.00;96762.72;5090546;28;20028;-47
2023/10/21 01:06:32;;;;;;;0.65;0.40;;;;;;;14.73;100.00;96756.66;5091726;28;20020;-47
2023/10/21 01:08:59;;;;;;;1.13;0.20;;;;;;;14.80;100.00;96764.25;5091870;28;20036;-47
2023/10/21 01:11:25;;;;;;;2.50;0.40;;;;;;;14.77;100.00;96780.66;5073825;28;20024;-47
2023/10/21 01:13:51;;;;;;;0.47;0.20;;;;;;;14.73;100.00;96777.78;5091852;28;20024;-47
2023/10/21 01:16:17;;;;;;;0.70;0.30;;;;;;;14.74;100.00;96797.03;5090478;28;20034;-47
2023/10/21 01:18:43;;;;;;;0.55;0.30;;;;;;;14.75;100.00;96786.22;5090527;28;20401;-47
2023/10/21 01:21:09;;;;;;;0.45;0.17;;;;;;;14.77;100.00;96784.09;5091737;28;20102;-47
2023/10/21 01:23:36;;;;;;;2.80;0.35;;;;;;;14.76;100.00;96792.28;5092028;28;20074;-46
2023/10/21 01:26:05;;;;;;;0.43;0.30;;;;;;;14.75;100.00;96788.84;5090672;28;20493;-47
2023/10/21 01:28:35;;;;;;;1.30;1.10;;;;;;;14.80;100.00;96788.00;5090618;28;20024;-47
2023/10/21 01:31:02;;;;;;;1.90;0.20;;;;;;;14.80;100.00;96790.66;5090279;28;20036;-47
2023/10/21 01:33:36;;;;;;;2.70;0.73;;;;;;;14.87;100.00;96803.53;5091581;28;20022;-46
2023/10/21 01:36:02;;;;;;;2.45;0.70;;;;;;;15.00;100.00;96800.28;5090334;28;20120;-47
2023/10/21 01:38:28;;;;;;;4.28;0.55;;;;;;;15.14;100.00;96792.53;5090253;28;20056;-47
2023/10/21 01:40:53;;;;;;;2.15;0.40;;;;;;;15.24;100.00;96797.75;5090247;28;20020;-47
2023/10/21 01:43:19;;;;;;;1.45;0.50;;;;;;;15.32;100.00;96815.66;5090243;28;20016;-47
2023/10/21 01:45:45;;;;;;;0.60;0.50;;;;;;;15.37;100.00;96812.16;5091503;28;20031;-47
2023/10/21 01:48:11;;;;;;;1.80;0.30;;;;;;;15.45;100.00;96819.50;5090387;28;20031;-47
2023/10/21 01:50:37;;;;;;;2.25;0.40;;;;;;;15.64;100.00;96814.31;5091374;28;20451;-47
2023/10/21 01:53:03;;;;;;;1.20;0.45;;;;;;;15.72;100.00;96829.59;5091388;28;20021;-47
2023/10/21 01:55:29;;;;;;;2.05;0.43;;;;;;;15.68;100.00;96817.97;5091404;28;20072;-47
2023/10/21 01:57:54;;;;;;;1.95;0.40;;;;;;;15.61;100.00;96845.81;5090123;28;20481;-47
2023/10/21 02:00:20;;;;;;;1.13;0.40;;;;;;;15.56;100.00;96838.72;5090080;28;20031;-47
2023/10/21 02:02:56;;;;;;;1.65;1.10;;;;;;;15.62;100.00;96837.59;5091392;28;20523;-47
2023/10/21 02:05:24;;;;;;;3.85;0.40;;;;;;;15.63;100.00;96847.09;5089972;28;20089;-47
2023/10/21 02:07:50;;;;;;;4.68;0.60;;;;;;;15.57;97.19;96841.09;5090983;28;20044;-47
2023/10/21 02:10:19;;;;;;;2.92;0.60;;;;;;;15.55;96.53;96856.44;5091252;28;20020;-47
2023/10/21 02:12:45;;;;;;;0.90;0.70;;;;;;;15.48;97.83;96852.53;5091517;28;20386;-47
2023/10/21 02:15:16;;;;;;;0.90;0.70;;;;;;;15.51;99.14;96850.13;5092659;28;20023;-47
2023/10/21 02:17:44;;;;;;;0.25;0.22;;;;;;;15.49;98.27;96868.13;5094980;28;20036;-47
2023/10/21 02:20:14;;;;;;;3.45;0.60;;;;;;;15.44;97.29;96870.03;5093555;28;20024;-47
2023/10/21 02:22:41;;;;;;;1.38;0.45;;;;;;;15.48;96.69;96868.41;5094863;28;20124;-47
2023/10/21 02:25:14;;;;;;;1.13;0.40;;;;;;;15.45;96.45;96869.72;5093421;28;20030;-47
2023/10/21 02:27:40;;;;;;;1.15;0.60;;;;;;;15.49;96.70;96870.78;5094689;28;20032;-47
2023/10/21 02:30:08;;;;;;;1.48;0.73;;;;;;;15.50;94.57;96872.34;5094648;28;20103;-47
2023/10/21 02:32:34;;;;;;;3.58;0.45;;;;;;;15.48;94.29;96879.75;5093335;28;20034;-47
2023/10/21 02:34:59;;;;;;;0.98;0.40;;;;;;;15.48;94.33;96884.25;5093225;28;20020;-47
2023/10/21 02:37:25;;;;;;;2.08;0.40;;;;;;;15.54;96.04;96904.31;5094541;28;20490;-47
2023/10/21 02:39:50;;;;;;;6.88;1.40;;;;;;;15.54;95.56;96915.66;5094516;28;20020;-47
2023/10/21 02:42:16;;;;;;;2.90;0.35;;;;;;;15.62;93.71;96916.94;5094421;28;20051;-47
2023/10/21 02:44:42;;;;;;;1.92;0.20;;;;;;;15.58;94.40;96916.69;5094491;28;20024;-47
2023/10/21 02:47:07;;;;;;;15.23;0.80;;;;;;;15.51;94.08;96912.78;5094196;28;20543;-47
2023/10/21 02:49:33;;;;;;;0.98;0.40;;;;;;;15.50;94.14;96914.63;5092993;28;20035;-47
2023/10/21 02:51:59;;;;;;;3.70;0.60;;;;;;;15.48;92.99;96916.75;5094154;28;20066;-47
2023/10/21 02:54:25;;;;;;;1.83;0.55;;;;;;;15.47;92.70;96917.03;5094167;28;20012;-47
2023/10/21 02:56:51;;;;;;;0.22;0.15;;;;;;;15.45;91.89;96916.53;5094138;28;20028;-47
2023/10/21 02:59:17;;;;;;;2.63;0.50;;;;;;;15.45;91.33;96935.03;5092854;28;20027;-47
2023/10/21 03:01:42;;;;;;;3.30;1.27;;;;;;;15.42;91.72;96946.16;5092761;28;20057;-47
2023/10/21 03:04:08;;;;;;;3.00;0.30;;;;;;;15.48;92.23;96937.13;5094060;28;20020;-47
2023/10/21 03:06:34;;;;;;;1.02;0.30;;;;;;;15.51;92.37;96941.84;5093716;28;20032;-48
2023/10/21 03:08:59;;;;;;;2.65;0.65;;;;;;;15.48;91.62;96937.13;5093826;28;20146;-47
2023/10/21 03:11:25;;;;;;;1.73;0.40;;;;;;;15.51;92.70;96941.84;5092696;28;20024;-47
2023/10/21 03:13:51;;;;;;;2.92;1.00;;;;;;;15.51;93.10;96934.75;5092794;28;20020;-47
2023/10/21 03:16:16;;;;;;;2.50;0.68;;;;;;;15.56;92.74;96944.47;5093763;28;20040;-47
2023/10/21 03:18:45;;;;;;;0.95;0.20;;;;;;;15.56;91.62;96939.97;5093800;28;20453;-47
2023/10/21 03:21:11;;;;;;;2.78;0.65;;;;;;;15.52;89.85;96957.44;5093693;28;20028;-47
2023/10/21 03:23:37;;;;;;;1.85;0.40;;;;;;;15.48;89.52;96947.72;5093604;28;20031;-47
2023/10/21 03:26:04;;;;;;;2.05;0.60;;;;;;;15.45;88.55;96958.81;5093584;28;20024;-47
2023/10/21 03:28:30;;;;;;;1.17;0.30;;;;;;;15.46;89.22;96955.13;5093444;28;20031;-47
2023/10/21 03:30:57;;;;;;;0.20;0.20;;;;;;;15.46;89.14;96966.47;5093477;28;20031;-47
2023/10/21 03:33:26;;;;;;;1.25;0.70;;;;;;;15.45;88.88;96977.31;5093436;28;20375;-47
2023/10/21 03:35:56;;;;;;;2.67;0.40;;;;;;;15.55;88.83;96958.75;5092079;28;20028;-47
2023/10/21 03:38:23;;;;;;;2.10;0.30;;;;;;;15.50;87.84;96962.22;5092291;28;20024;-47
2023/10/21 03:41:07;;;;;;;2.25;0.40;;;;;;;15.41;88.44;96958.56;5091941;28;20028;-47
2023/10/21 03:43:34;;;;;;;3.23;0.47;;;;;;;15.37;89.20;96965.47;5092114;28;20397;-47
2023/10/21 03:46:17;;;;;;;3.83;0.50;;;;;;;15.35;89.73;96962.31;5093097;28;20675;-47
2023/10/21 03:48:43;;;;;;;2.33;0.88;;;;;;;15.36;91.38;96950.69;5092025;28;20024;-47
2023/10/21 03:51:12;;;;;;;2.05;0.40;;;;;;;15.32;91.90;96942.50;5092119;28;20039;-47
2023/10/21 03:53:40;;;;;;;4.90;0.40;;;;;;;15.27;91.62;96961.06;5093379;28;20522;-47
2023/10/21 03:56:06;;;;;;;3.58;0.50;;;;;;;15.23;91.94;96969.78;5091991;28;20494;-47
2023/10/21 03:58:32;;;;;;;2.90;0.43;;;;;;;15.24;91.78;96979.31;5091781;28;20116;-47
2023/10/21 04:00:57;;;;;;;2.42;2.13;;;;;;;15.23;91.14;96975.88;5091844;28;20031;-47
2023/10/21 04:03:25;;;;;;;2.50;0.50;;;;;;;15.18;91.12;96966.09;5091553;28;20023;-47
2023/10/21 04:05:55;;;;;;;1.70;0.50;;;;;;;15.18;91.38;96965.31;5092739;28;20513;-47
2023/10/21 04:08:21;;;;;;;3.55;0.50;;;;;;;15.16;91.13;96970.88;5091137;28;20039;-47
2023/10/21 04:10:47;;;;;;;1.52;0.40;;;;;;;15.15;91.48;96973.78;5091395;28;20036;-47
2023/10/21 04:13:13;;;;;;;0.55;0.25;;;;;;;15.09;91.25;96980.16;5092704;28;20024;-47
2023/10/21 04:15:39;;;;;;;0.20;0.20;;;;;;;15.00;90.56;96984.44;5092623;28;20020;-47
2023/10/21 04:18:05;;;;;;;2.22;0.70;;;;;;;14.93;90.40;96993.44;5091288;28;20027;-47
2023/10/21 04:20:34;;;;;;;1.23;0.52;;;;;;;14.91;90.99;96992.91;5092561;28;20024;-47
2023/10/21 04:23:00;;;;;;;2.40;0.47;;;;;;;14.94;90.57;96986.28;5092483;28;20027;-47
2023/10/21 04:25:27;;;;;;;5.53;0.70;;;;;;;14.92;90.16;96989.19;5092444;28;20026;-47
2023/10/21 04:27:53;;;;;;;1.50;0.35;;;;;;;14.91;90.18;96992.91;5092371;28;20017;-47
2023/10/21 04:30:19;;;;;;;1.65;0.60;;;;;;;14.89;91.02;97000.31;5092408;28;20020;-47
2023/10/21 04:32:44;;;;;;;2.17;0.50;;;;;;;14.88;91.32;97009.28;5092288;28;20077;-47
2023/10/21 04:35:10;;;;;;;1.73;0.40;;;;;;;14.89;91.54;97010.06;5092358;28;20028;-47
2023/10/21 04:37:36;;;;;;;5.97;0.90;;;;;;;14.91;91.48;97006.13;5090857;28;20024;-47
2023/10/21 04:40:03;;;;;;;3.70;0.70;;;;;;;14.95;91.18;97009.81;5092109;28;20032;-46
2023/10/21 04:42:29;;;;;;;3.80;0.40;;;;;;;14.96;90.15;97010.59;5092210;28;20020;-47
2023/10/21 04:44:55;;;;;;;3.75;0.77;;;;;;;14.98;90.33;97009.25;5092150;28;20047;-47
2023/10/21 04:47:21;;;;;;;2.90;0.52;;;;;;;15.00;89.85;97022.19;5090999;28;20020;-47
2023/10/21 04:49:47;;;;;;;3.20;0.40;;;;;;;14.99;89.57;97018.00;5092075;28;20032;-47
2023/10/21 04:52:17;;;;;;;3.00;0.70;;;;;;;14.98;88.37;97025.09;5091041;28;20161;-47
2023/10/21 04:54:44;;;;;;;3.33;0.75;;;;;;;15.01;88.63;97031.72;5092076;28;20032;-47
2023/10/21 04:57:10;;;;;;;2.72;1.27;;;;;;;14.98;86.29;97035.66;5090754;28;20542;-47
2023/10/21 04:59:38;;;;;;;0.98;0.38;;;;;;;15.00;86.22;97043.34;5091999;28;20020;-47
2023/10/21 05:02:05;;;;;;;2.33;0.57;;;;;;;14.96;85.21;97045.72;5090557;28;20370;-47
2023/10/21 05:04:31;;;;;;;5.47;1.25;;;;;;;15.01;86.49;97046.75;5091980;28;20016;-47
2023/10/21 05:06:57;;;;;;;2.95;0.80;;;;;;;15.02;86.21;97051.00;5090146;28;20055;-47
2023/10/21 05:09:23;;;;;;;1.25;0.47;;;;;;;15.08;85.67;97052.56;5090904;28;20024;-47
2023/10/21 05:11:49;;;;;;;2.05;0.45;;;;;;;15.11;85.94;97042.25;5091830;28;20031;-47
2023/10/21 05:14:15;;;;;;;3.08;0.73;;;;;;;15.17;84.77;97040.34;5090465;28;20036;-47
2023/10/21 05:16:40;;;;;;;4.25;0.47;;;;;;;15.15;83.33;97030.09;5090478;28;20084;-47
2023/10/21 05:19:06;;;;;;;2.20;0.52;;;;;;;15.17;83.17;97030.59;5091802;28;20031;-47
2023/10/21 05:21:32;;;;;;;1.77;0.63;;;;;;;15.15;82.98;97024.78;5090389;28;20553;-47
2023/10/21 05:23:58;;;;;;;1.42;0.50;;;;;;;15.10;83.56;97032.72;5090716;28;20031;-47
2023/10/21 05:26:26;;;;;;;2.97;0.50;;;;;;;15.03;83.73;97042.00;5090718;28;20052;-47
2023/10/21 05:28:51;;;;;;;7.03;0.60;;;;;;;14.93;84.08;97041.00;5091657;28;20024;-47
2023/10/21 05:31:17;;;;;;;4.32;3.03;;;;;;;14.88;84.80;97048.13;5090626;28;20038;-47
2023/10/21 05:33:44;;;;;;;5.22;3.38;;;;;;;14.80;84.58;97044.19;5090675;28;20024;-47
2023/10/21 05:36:10;;;;;;;3.42;0.70;;;;;;;14.76;85.04;97053.69;5091896;28;20024;-47
2023/10/21 05:38:36;;;;;;;3.47;0.55;;;;;;;14.77;86.08;97052.66;5090569;28;20408;-47
2023/10/21 05:41:02;;;;;;;2.55;1.00;;;;;;;14.80;85.91;97060.03;5090412;28;20107;-48
2023/10/21 05:43:28;;;;;;;3.80;0.60;;;;;;;14.85;86.01;97062.66;5091850;28;20028;-47
2023/10/21 05:45:53;;;;;;;6.43;1.20;;;;;;;14.95;86.72;97067.94;5091570;28;20442;-47
2023/10/21 05:48:19;;;;;;;5.45;0.60;;;;;;;15.12;86.48;97072.88;5090499;28;20481;-48
2023/10/21 05:50:45;;;;;;;2.92;0.85;;;;;;;15.14;85.52;97072.63;5094024;28;20055;-47
2023/10/21 05:53:11;;;;;;;5.57;1.27;;;;;;;15.20;84.95;97076.81;5095512;28;20023;-47
2023/10/21 05:55:41;;;;;;;1.95;0.50;;;;;;;15.25;83.95;97076.81;5095406;28;20024;-47
2023/10/21 05:58:08;;;;;;;2.20;0.90;;;;;;;15.30;83.42;97084.72;5095282;28;20027;-47
2023/10/21 06:00:36;;;;;;;2.83;1.20;;;;;;;15.36;83.60;97088.13;5095365;28;20024;-47
2023/10/21 06:03:02;;;;;;;4.78;1.48;;;;;;;15.37;82.42;97089.69;5095275;28;20031;-47
2023/10/21 06:05:28;;;;;;;5.63;1.30;;;;;;;15.40;82.96;97093.69;5095229;28;20024;-47
2023/10/21 06:07:54;;;;;;;7.30;2.20;;;;;;;15.52;83.89;97096.81;5093622;28;20036;-47
2023/10/21 06:10:23;;;;;;;2.17;0.60;;;;;;;15.65;81.95;97095.41;5095061;28;20024;-47
2023/10/21 06:12:49;;;;;;;2.15;0.65;;;;;;;15.57;81.48;97092.28;5094997;28;20428;-46
2023/10/21 06:15:16;;;;;;;1.83;0.63;;;;;;;15.50;82.03;97098.94;5095019;28;20020;-47
2023/10/21 06:17:41;;;;;;;7.10;0.90;;;;;;;15.46;82.76;97111.09;5093644;28;20173;-47
2023/10/21 06:20:08;;;;;;;4.80;1.38;;;;;;;15.42;83.03;97110.06;5094914;28;20114;-47
2023/10/21 06:22:34;;;;;;;7.55;1.75;;;;;;;15.41;83.33;97108.47;5093577;28;20045;-47
2023/10/21 06:25:00;;;;;;;3.20;1.05;;;;;;;15.42;82.98;97115.34;5093607;28;20228;-47
2023/10/21 06:27:26;;;;;;;2.72;0.90;;;;;;;15.48;81.75;97122.19;5094643;28;20031;-47
2023/10/21 06:29:52;;;;;;;3.33;1.00;;;;;;;15.51;81.34;97129.56;5094651;28;20566;-47
2023/10/21 06:32:17;;;;;;;3.15;1.27;;;;;;;15.52;81.63;97134.59;5093422;28;20028;-47
2023/10/21 06:34:43;;;;;;;5.88;1.80;;;;;;;15.67;82.35;97140.88;5094656;28;20115;-47
2023/10/21 06:37:09;;;;;;;8.57;2.33;;;;;;;15.85;80.21;97137.66;5093301;28;20401;-47
2023/10/21 06:39:35;;;;;;;3.85;0.80;;;;;;;15.93;77.00;97138.94;5094554;28;20019;-47
2023/10/21 06:42:00;;;;;;;3.95;1.45;;;;;;;15.82;77.66;97148.00;5094518;28;20078;-47
2023/10/21 06:44:26;;;;;;;4.40;1.20;;;;;;;15.91;77.31;97149.78;5093396;28;20509;-47
2023/10/21 06:46:52;;;;;;;4.80;1.02;;;;;;;15.91;76.39;97164.88;5093105;28;20028;-47
2023/10/21 06:49:19;;;;;;;4.55;1.55;;;;;;;15.96;75.45;97163.00;5094566;28;20088;-47
2023/10/21 06:51:49;;;;;;;2.80;1.00;;;;;;;15.94;74.84;97170.44;5094312;28;20157;-47
2023/10/21 06:54:17;;;;;;;14.48;2.13;;;;;;;15.98;73.89;97175.97;5094319;28;20495;-47
2023/10/21 06:56:46;;;;;;;8.73;1.88;;;;;;;16.08;73.67;97180.44;5094124;28;20210;-47
2023/10/21 06:59:13;;;;;;;4.93;1.00;;;;;;;16.22;72.39;97177.94;5092930;28;20393;-47
2023/10/21 07:01:40;;;;;;;9.00;1.50;;;;;;;16.27;73.04;97183.22;5093822;28;20431;-47
2023/10/21 07:04:06;;;;;;;7.15;1.77;;;;;;;16.37;71.97;97180.50;5092802;28;20020;-47
2023/10/21 07:06:32;;;;;;;10.93;2.08;;;;;;;16.46;71.93;97184.16;5093670;28;20025;-48
2023/10/21 07:08:57;;;;;;;4.55;1.17;;;;;;;16.56;71.74;97188.59;5096372;28;20043;-47
2023/10/21 07:11:24;;;;;;;4.45;1.10;;;;;;;16.62;72.59;97197.28;5092950;28;20076;-47
2023/10/21 07:13:49;;;;;;;11.82;1.73;;;;;;;16.67;71.91;97203.34;5093787;28;20024;-47
2023/10/21 07:16:15;;;;;;;8.48;1.20;;;;;;;16.82;71.31;97207.78;5093906;28;20397;-47
2023/10/21 07:18:41;;;;;;;6.55;1.60;;;;;;;16.95;71.95;97211.66;5093809;28;20106;-47
2023/10/21 07:21:09;;;;;;;6.43;1.40;;;;;;;17.12;71.41;97211.22;5093666;28;20036;-47
2023/10/21 07:23:38;;;;;;;3.78;1.17;;;;;;;17.22;71.15;97208.47;5093690;28;20107;-47
2023/10/21 07:26:04;;;;;;;7.13;1.35;;;;;;;17.30;70.80;97220.34;5093680;28;20099;-47
2023/10/21 07:28:33;;;;;;;10.15;2.22;;;;;;;17.42;70.69;97212.00;5093473;28;20482;-47
2023/10/21 07:31:00;;;;;;;10.13;3.10;;;;;;;17.57;69.21;97219.81;5093771;28;20055;-47
2023/10/21 07:33:26;;;;;;;5.95;1.65;;;;;;;17.96;69.28;97217.00;5093529;28;20023;-47
2023/10/21 07:35:53;;;;;;;4.93;1.40;;;;;;;18.20;68.38;97224.16;5092077;28;20113;-47
2023/10/21 07:38:22;;;;;;;7.88;2.72;;;;;;;18.25;68.50;97237.38;5093441;28;20028;-47
2023/10/21 07:40:48;;;;;;;6.82;2.47;;;;;;;18.61;68.32;97239.50;5093367;28;20032;-47
2023/10/21 07:43:17;;;;;;;6.20;1.90;;;;;;;18.87;66.51;97249.81;5093325;28;20055;-48
2023/10/21 07:45:44;;;;;;;5.40;1.20;;;;;;;18.97;66.77;97246.97;5093260;28;20024;-47
2023/10/21 07:48:10;;;;;;;5.75;1.15;;;;;;;18.79;60.85;97259.22;5093155;28;20052;-47
2023/10/21 07:50:37;;;;;;;2.47;1.02;;;;;;;18.44;59.54;97255.97;5093054;28;20021;-47
2023/10/21 07:53:03;;;;;;;3.03;0.98;;;;;;;18.17;59.39;97265.34;5093108;28;20034;-47
2023/10/21 07:55:29;;;;;;;4.47;1.42;;;;;;;18.00;60.15;97269.53;5093110;28;20023;-47
2023/10/21 07:57:56;;;;;;;5.68;2.38;;;;;;;17.88;61.94;97269.94;5093052;28;20024;-47
2023/10/21 08:00:21;;;;;;;4.07;1.10;;;;;;;18.01;62.73;97274.56;5092963;28;20051;-47
2023/10/21 08:02:48;;;;;;;9.70;1.60;;;;;;;18.04;63.47;97267.91;5091575;28;20066;-47
2023/10/21 08:05:15;;;;;;;6.78;1.58;;;;;;;18.19;63.97;97270.38;5092798;28;20016;-47
2023/10/21 08:07:41;;;;;;;7.38;1.45;;;;;;;18.38;64.09;97278.38;5092489;28;20498;-47
2023/10/21 08:10:07;;;;;;;4.75;1.67;;;;;;;18.80;64.08;97282.06;5091805;28;20031;-47
2023/10/21 08:12:34;;;;;;;2.50;0.80;;;;;;;19.77;61.72;97286.91;5092033;28;20454;-47
2023/10/21 08:15:09;;;;;;;5.60;1.20;;;;;;;20.00;60.47;97285.16;5092696;28;20013;-48
2023/10/21 08:17:36;;;;;;;4.30;1.00;;;;;;;20.43;60.06;97280.28;5091698;28;20039;-47
2023/10/21 08:20:03;;;;;;;8.48;1.52;;;;;;;20.74;59.08;97277.78;5092852;28;20032;-48
2023/10/21 08:22:28;;;;;;;4.30;1.00;;;;;;;21.99;57.56;97274.41;5092568;28;20031;-47
2023/10/21 08:24:54;;;;;;;3.45;1.67;;;;;;;24.24;54.00;97271.09;5092555;28;20020;-45
2023/10/21 08:27:21;;;;;;;4.65;1.17;;;;;;;25.41;48.69;97267.66;5092339;28;20020;-46
2023/10/21 08:29:48;;;;;;;4.63;1.00;;;;;;;25.59;47.30;97274.41;5091109;28;20067;-46
2023/10/21 08:32:14;;;;;;;5.32;1.80;;;;;;;24.89;48.13;97285.81;5092492;28;20023;-46
2023/10/21 08:34:40;;;;;;;3.80;0.80;;;;;;;25.88;46.59;97284.22;5092363;28;20028;-46
2023/10/21 08:37:07;;;;;;;9.95;1.98;;;;;;;26.77;45.61;97288.09;5091130;28;20031;-46
2023/10/21 08:39:36;;;;;;;7.40;1.60;;;;;;;26.65;44.42;97294.28;5092288;28;20076;-46
2023/10/21 08:42:03;;;;;;;10.48;3.33;;;;;;;27.51;44.70;97301.28;5092261;28;20020;-46
2023/10/21 08:44:32;;;;;;;11.02;2.70;;;;;;;28.73;42.35;97296.03;5090887;28;20028;-46
2023/10/21 08:47:03;;;;;;;4.07;1.05;;;;;;;29.67;39.62;97299.41;5092189;28;20032;-46
2023/10/21 08:49:32;;;;;;;4.07;1.75;;;;;;;30.26;36.20;97291.06;5092253;28;20032;-46
2023/10/21 08:52:00;;;;;;;6.63;1.45;;;;;;;30.43;36.22;97306.06;5092165;28;20396;-46
2023/10/21 08:54:26;;;;;;;3.17;1.15;;;;;;;30.61;35.41;97307.06;5092097;28;20481;-45
2023/10/21 08:56:52;;;;;;;5.53;1.00;;;;;;;30.58;33.67;97313.19;5090845;28;20016;-46
2023/10/21 08:59:18;;;;;;;1.42;0.70;;;;;;;30.62;32.20;97311.31;5090723;28;20043;-46
2023/10/21 09:01:45;;;;;;;3.17;0.80;;;;;;;30.43;31.33;97312.22;5091959;28;20031;-46
2023/10/21 09:04:13;;;;;;;6.20;1.77;;;;;;;30.34;32.69;97311.72;5090820;28;20486;-46
2023/10/21 09:06:57;;;;;;;8.35;2.10;;;;;;;30.01;32.66;97318.53;5090624;28;20056;-46
2023/10/21 09:09:26;;;;;;;7.13;1.88;;;;;;;29.55;32.99;97321.22;5090823;28;20039;-46
2023/10/21 09:12:23;;;;;;;5.82;2.42;;;;;;;29.47;31.04;97327.63;5091930;28;20024;-46
2023/10/21 09:14:57;;;;;;;14.50;9.38;;;;;;;30.14;29.41;97321.03;5079323;28;20620;-46
2023/10/21 09:17:40;;;;;;;4.60;2.63;;;;;;;31.38;26.26;97313.03;5090515;28;20090;-46
2023/10/21 09:20:14;;;;;;;4.40;1.10;;;;;;;31.98;25.13;97320.19;5090579;28;20023;-46
2023/10/21 09:22:41;;;;;;;3.45;1.13;;;;;;;32.75;24.50;97316.84;5091795;28;20020;-46
2023/10/21 09:25:21;;;;;;;3.40;1.83;;;;;;;33.00;23.81;97320.47;5095107;28;20036;-46
2023/10/21 09:27:55;;;;;;;2.92;1.00;;;;;;;32.31;23.47;97315.03;5096227;28;20020;-46
2023/10/21 09:30:26;;;;;;;4.97;1.95;;;;;;;32.46;24.48;97327.53;5094609;28;20031;-46
2023/10/21 09:33:04;;;;;;;2.38;1.15;;;;;;;32.55;24.28;97327.22;5095898;28;20028;-47
2023/10/21 09:35:30;;;;;;;7.65;1.70;;;;;;;31.82;24.54;97331.31;5095755;28;20460;-46
2023/10/21 09:37:57;;;;;;;6.18;1.83;;;;;;;31.82;24.60;97325.09;5095755;28;20051;-46
2023/10/21 09:40:26;;;;;;;1.70;0.82;;;;;;;32.18;23.44;97328.91;5095598;28;20431;-46
2023/10/21 09:42:53;;;;;;;6.22;1.05;;;;;;;31.57;23.15;97331.09;5095607;28;20020;-46
2023/10/21 09:45:20;;;;;;;2.03;1.00;;;;;;;31.31;23.84;97326.53;5095540;28;20024;-46
2023/10/21 09:47:46;;;;;;;6.15;2.13;;;;;;;31.18;24.53;97331.41;5095434;28;20016;-46
2023/10/21 09:50:14;;;;;;;3.03;1.08;;;;;;;31.79;23.37;97326.63;5095709;28;20031;-46
2023/10/21 09:52:56;;;;;;;4.45;1.23;;;;;;;32.59;23.97;97338.91;5095453;28;20085;-46
2023/10/21 09:55:27;;;;;;;3.38;1.25;;;;;;;33.55;22.34;97329.59;5095317;28;20027;-46
2023/10/21 09:57:54;;;;;;;4.85;2.33;;;;;;;34.00;21.81;97322.63;5095451;28;20096;-46
2023/10/21 10:00:21;;;;;;;5.88;2.20;;;;;;;34.14;21.83;97326.56;5095285;28;20505;-46
2023/10/21 10:02:48;;;;;;;4.93;1.42;;;;;;;34.01;21.36;97332.38;5095318;28;20017;-46
2023/10/21 10:05:17;;;;;;;5.25;1.80;;;;;;;33.62;21.12;97337.78;5095199;28;20024;-46
2023/10/21 10:07:45;;;;;;;2.50;0.68;;;;;;;33.07;20.98;97332.53;5094887;28;20032;-47
2023/10/21 10:10:13;;;;;;;4.47;1.90;;;;;;;32.46;21.69;97330.25;5095149;28;20020;-47
2023/10/21 10:12:48;;;;;;;3.50;1.08;;;;;;;32.10;21.74;97329.25;5093983;28;20482;-46
2023/10/21 10:15:35;;;;;;;2.33;1.20;;;;;;;31.55;22.75;97333.38;5094963;28;20051;-46
2023/10/21 10:18:08;;;;;;;3.78;1.00;;;;;;;30.85;23.49;97326.72;5093606;28;20528;-46
2023/10/21 10:20:44;;;;;;;4.67;1.10;;;;;;;30.53;24.08;97323.59;5094954;28;20023;-46
2023/10/21 10:23:09;;;;;;;3.20;0.70;;;;;;;30.17;23.94;97331.16;5094977;28;20512;-46
2023/10/21 10:25:38;;;;;;;5.82;1.23;;;;;;;29.82;24.88;97337.53;5094774;28;20023;-46
2023/10/21 10:28:10;;;;;;;3.25;1.50;;;;;;;29.73;24.95;97320.78;5094996;28;20020;-46
2023/10/21 10:30:44;;;;;;;2.58;0.82;;;;;;;29.54;24.81;97335.06;5093511;28;20126;-46
2023/10/21 10:33:15;;;;;;;3.35;1.33;;;;;;;29.55;24.99;97326.63;5093769;28;20493;-46
2023/10/21 10:35:43;;;;;;;3.10;0.82;;;;;;;30.03;24.59;97320.88;5094224;28;20071;-46
2023/10/21 10:38:20;;;;;;;1.77;0.63;;;;;;;30.35;23.93;97321.41;5094680;28;20024;-45
2023/10/21 10:40:47;;;;;;;2.15;0.60;;;;;;;30.23;23.13;97324.28;5093390;28;20032;-46
2023/10/21 10:43:15;;;;;;;2.13;0.55;;;;;;;29.70;24.36;97316.03;5093323;28;20052;-46
2023/10/21 10:45:41;;;;;;;3.33;1.20;;;;;;;29.62;24.61;97317.84;5094505;28;20024;-46
2023/10/21 10:48:07;;;;;;;2.15;1.00;;;;;;;29.92;24.03;97323.41;5094654;28;20429;-46
2023/10/21 10:50:36;;;;;;;4.88;1.80;;;;;;;30.00;24.49;97324.31;5093373;28;20068;-46
2023/10/21 10:53:22;;;;;;;4.32;1.42;;;;;;;30.33;24.03;97320.22;5094373;28;20100;-46
2023/10/21 10:55:50;;;;;;;4.95;1.00;;;;;;;30.57;23.73;97321.72;5093168;28;20040;-46
2023/10/21 10:58:18;;;;;;;3.35;1.90;;;;;;;30.70;23.35;97319.56;5094231;28;20031;-46
2023/10/21 11:00:45;;;;;;;5.72;1.30;;;;;;;31.00;23.12;97320.34;5094126;28;20028;-46
2023/10/21 11:03:22;;;;;;;7.07;1.70;;;;;;;31.29;23.30;97319.88;5094148;28;20074;-47
2023/10/21 11:05:48;;;;;;;4.45;1.42;;;;;;;31.68;22.61;97303.28;5093098;28;20128;-46
2023/10/21 11:08:15;;;;;;;4.40;0.73;;;;;;;31.67;22.57;97307.91;5097502;28;20134;-47
2023/10/21 11:10:41;;;;;;;2.05;0.90;;;;;;;31.43;23.20;97317.31;5093983;28;20035;-46
2023/10/21 11:13:07;;;;;;;2.00;0.80;;;;;;;31.13;23.22;97320.91;5093973;28;20445;-46
2023/10/21 11:15:41;;;;;;;4.15;1.27;;;;;;;31.11;23.68;97316.97;5093901;28;20023;-46
2023/10/21 11:18:07;;;;;;;2.10;0.60;;;;;;;31.12;22.41;97319.31;5092874;28;20039;-46
2023/10/21 11:20:32;;;;;;;6.28;1.52;;;;;;;30.86;22.78;97323.63;5092503;28;20406;-46
2023/10/21 11:23:09;;;;;;;3.72;1.30;;;;;;;30.48;23.30;97323.91;5093737;28;20401;-46
2023/10/21 11:25:36;;;;;;;2.03;0.60;;;;;;;30.56;22.71;97322.84;5093722;28;20020;-46
2023/10/21 11:28:02;;;;;;;2.80;0.63;;;;;;;30.38;23.07;97315.25;5092569;28;20031;-46
2023/10/21 11:30:30;;;;;;;5.78;1.80;;;;;;;30.32;23.18;97313.22;5092325;28;20028;-46
2023/10/21 11:32:55;;;;;;;2.95;1.38;;;;;;;30.36;23.27;97309.41;5093503;28;20490;-46